Terminal Aerodrome Forecast
Issued by NWS

Current Version | Previous Version | Text Only | Print | Product List | Glossary Off
Versions: 1 2 3 4 5 6 7 8 9 10 11 12 13 14 15 16 17 18

733
FTUS41 KPBZ 251540 AAA
TAFMGW
TAF AMD
KMGW 251540Z 2516/2612 22008G18KT P6SM SCT050
     FM252300 22004KT P6SM SKC=

USA.gov is the U.S. government's official web portal to all federal, state and local government web resources and services.